Terminal Aerodrome Forecast
Issued by NWS Amarillo, TX

Home | Current Version | Previous Version | Text Only | Print | Product List | Glossary On
Versions: 1 2 3 4 5 6 7 8 9 10 11 12
000
FTUS44 KAMA 220520
TAFGUY
TAF
KGUY 220520Z 2206/2306 23008KT P6SM BKN250
     FM221100 01014G20KT P6SM OVC015
     FM222000 04012KT P6SM BKN250=

USA.gov is the U.S. government's official web portal to all federal, state and local government web resources and services.